createdAt,value
2023-05-05T00:02:07.851Z,97.40
2023-05-05T00:04:34.642Z,97.80
2023-05-05T00:07:01.658Z,98.00
2023-05-05T00:09:29.781Z,98.70
2023-05-05T00:11:56.735Z,99.00
2023-05-05T00:14:23.632Z,99.30
2023-05-05T00:16:50.950Z,99.60
2023-05-05T00:19:17.678Z,99.90
2023-05-05T00:21:44.489Z,99.90
2023-05-05T00:24:14.576Z,99.90
2023-05-05T00:26:41.647Z,99.90
2023-05-05T00:29:08.480Z,99.90
2023-05-05T00:31:35.355Z,99.90
2023-05-05T00:34:02.614Z,99.90
2023-05-05T00:36:29.415Z,99.90
2023-05-05T00:38:56.175Z,99.90
2023-05-05T00:41:23.056Z,99.90
2023-05-05T00:43:49.831Z,99.90
2023-05-05T00:46:29.671Z,99.90
2023-05-05T00:48:56.668Z,99.90
2023-05-05T00:51:23.438Z,99.90
2023-05-05T00:53:51.791Z,99.90
2023-05-05T00:56:19.738Z,99.90
2023-05-05T00:58:47.406Z,99.90
2023-05-05T01:01:14.586Z,99.90
2023-05-05T01:03:41.892Z,99.90
2023-05-05T01:06:17.737Z,99.90
2023-05-05T01:09:03.245Z,99.90
2023-05-05T01:11:44.451Z,99.90
2023-05-05T01:14:26.059Z,99.90
2023-05-05T01:16:59.101Z,99.90
2023-05-05T01:20:09.415Z,99.90
2023-05-05T01:22:45.684Z,99.90
2023-05-05T01:25:35.205Z,99.90
2023-05-05T01:28:29.575Z,99.90
2023-05-05T01:31:23.791Z,99.90
2023-05-05T01:33:55.196Z,99.90
2023-05-05T01:36:26.093Z,99.90
2023-05-05T01:38:59.371Z,99.90
2023-05-05T01:41:29.294Z,99.90
2023-05-05T01:43:56.978Z,99.90
2023-05-05T01:46:24.631Z,99.90
2023-05-05T01:48:52.350Z,99.90
2023-05-05T01:51:20.209Z,99.90
2023-05-05T01:53:47.501Z,99.90
2023-05-05T01:56:15.346Z,99.90
2023-05-05T01:58:43.306Z,99.90
2023-05-05T02:01:10.631Z,99.90
2023-05-05T02:03:37.780Z,99.90
2023-05-05T02:06:06.271Z,99.90
2023-05-05T02:08:33.784Z,99.90
2023-05-05T02:11:00.884Z,99.90
2023-05-05T02:13:30.636Z,99.90
2023-05-05T02:15:58.001Z,99.90
2023-05-05T02:18:25.481Z,99.90
2023-05-05T02:20:53.555Z,99.90
2023-05-05T02:23:20.320Z,99.90
2023-05-05T02:25:52.047Z,99.90
2023-05-05T02:28:23.285Z,99.90
2023-05-05T02:30:57.441Z,99.90
2023-05-05T02:33:25.477Z,99.90
2023-05-05T02:35:52.858Z,99.90
2023-05-05T02:38:20.090Z,99.90
2023-05-05T02:40:47.599Z,99.90
2023-05-05T02:43:17.440Z,99.90
2023-05-05T02:45:44.523Z,99.90
2023-05-05T02:48:13.548Z,99.90
2023-05-05T02:50:41.939Z,99.90
2023-05-05T02:53:09.044Z,99.90
2023-05-05T02:56:02.228Z,99.90
2023-05-05T02:58:32.712Z,99.90
2023-05-05T03:01:08.790Z,99.90
2023-05-05T03:03:47.471Z,99.90
2023-05-05T03:06:17.195Z,99.90
2023-05-05T03:08:52.937Z,99.90
2023-05-05T03:11:37.645Z,99.90
2023-05-05T03:14:11.907Z,99.90
2023-05-05T03:16:44.459Z,99.90
2023-05-05T03:19:13.532Z,99.90
2023-05-05T03:21:41.904Z,99.90
2023-05-05T03:24:33.826Z,99.90
2023-05-05T03:27:01.168Z,99.90
2023-05-05T03:29:29.608Z,99.90
2023-05-05T03:31:56.993Z,99.90
2023-05-05T03:34:24.348Z,99.90
2023-05-05T03:36:51.137Z,99.90
2023-05-05T03:39:21.081Z,99.90
2023-05-05T03:41:48.355Z,99.90
2023-05-05T03:44:15.397Z,99.90
2023-05-05T03:46:44.274Z,99.90
2023-05-05T03:49:11.205Z,99.90
2023-05-05T03:51:39.489Z,99.90
2023-05-05T03:54:06.825Z,99.90
2023-05-05T03:56:33.536Z,99.90
2023-05-05T03:59:01.223Z,99.90
2023-05-05T04:01:30.059Z,99.90
2023-05-05T04:03:57.376Z,99.90
2023-05-05T04:06:25.801Z,99.90
2023-05-05T04:08:53.513Z,99.90
2023-05-05T04:11:24.450Z,99.90
2023-05-05T04:13:52.185Z,99.90
2023-05-05T04:16:19.745Z,99.90
2023-05-05T04:18:47.976Z,99.90
2023-05-05T04:21:15.100Z,99.90
2023-05-05T04:23:42.197Z,99.90
2023-05-05T04:26:11.129Z,99.90
2023-05-05T04:28:38.018Z,99.90
2023-05-05T04:31:05.862Z,99.90
2023-05-05T04:33:33.816Z,99.90
2023-05-05T04:36:00.626Z,99.90
2023-05-05T04:38:29.250Z,99.90
2023-05-05T04:41:00.302Z,99.90
2023-05-05T04:43:27.248Z,99.90
2023-05-05T04:45:54.756Z,99.90
2023-05-05T04:48:24.115Z,99.90
2023-05-05T04:50:51.453Z,99.90
2023-05-05T04:53:18.772Z,99.90
2023-05-05T04:55:48.122Z,99.90
2023-05-05T04:58:15.017Z,99.90
2023-05-05T05:00:41.790Z,99.90
2023-05-05T05:03:10.782Z,99.90
2023-05-05T05:05:37.682Z,99.70
2023-05-05T05:08:07.842Z,97.60
2023-05-05T05:10:35.855Z,96.70
2023-05-05T05:13:03.088Z,95.20
2023-05-05T05:15:31.278Z,95.10
2023-05-05T05:18:00.826Z,92.70
2023-05-05T05:20:30.197Z,91.10
2023-05-05T05:23:05.545Z,90.20
2023-05-05T05:25:33.158Z,87.90
2023-05-05T05:28:09.016Z,87.90
2023-05-05T05:30:37.528Z,82.00
2023-05-05T05:33:04.320Z,79.10
2023-05-05T05:37:58.634Z,73.00
2023-05-05T05:40:26.780Z,75.60
2023-05-05T05:42:56.840Z,75.40
2023-05-05T05:45:25.515Z,75.80
2023-05-05T05:47:57.366Z,76.70
2023-05-05T05:50:29.500Z,78.10
2023-05-05T05:52:58.020Z,77.20
2023-05-05T05:55:25.283Z,75.80
2023-05-05T05:57:52.099Z,75.70
2023-05-05T06:00:20.466Z,73.00
2023-05-05T06:02:47.392Z,73.60
2023-05-05T06:05:14.544Z,73.00
2023-05-05T06:07:41.857Z,73.20
2023-05-05T06:10:26.694Z,69.30
2023-05-05T06:12:55.001Z,70.20
2023-05-05T06:15:22.431Z,70.10
2023-05-05T06:17:49.615Z,66.40
2023-05-05T06:20:20.138Z,67.60
2023-05-05T06:22:49.280Z,65.30
2023-05-05T06:25:17.551Z,60.60
2023-05-05T06:27:46.884Z,60.30
2023-05-05T06:30:15.720Z,60.70
2023-05-05T06:32:43.782Z,61.90
2023-05-05T06:35:13.522Z,62.00
2023-05-05T06:37:40.363Z,59.50
2023-05-05T06:40:08.229Z,58.70
2023-05-05T06:42:36.004Z,57.10
2023-05-05T06:45:11.557Z,57.60
2023-05-05T06:47:38.343Z,58.30
2023-05-05T06:50:07.053Z,58.90
2023-05-05T06:52:36.955Z,58.80
2023-05-05T06:55:04.614Z,58.60
2023-05-05T06:57:32.802Z,57.90
2023-05-05T07:00:00.212Z,56.30
2023-05-05T07:02:31.555Z,57.20
2023-05-05T07:04:58.856Z,57.10
2023-05-05T07:07:26.924Z,56.10
2023-05-05T07:09:56.481Z,54.70
2023-05-05T07:12:23.654Z,55.10
2023-05-05T07:14:51.554Z,53.20
2023-05-05T07:17:19.321Z,54.00
2023-05-05T07:19:54.244Z,53.00
2023-05-05T07:22:23.151Z,53.40
2023-05-05T07:24:53.316Z,53.40
2023-05-05T07:27:24.383Z,52.70
2023-05-05T07:29:54.527Z,50.90
2023-05-05T07:32:21.567Z,50.70
2023-05-05T07:34:49.270Z,50.50
2023-05-05T07:37:18.082Z,49.50
2023-05-05T07:39:48.897Z,49.10
2023-05-05T07:42:15.891Z,48.20
2023-05-05T07:44:42.687Z,49.70
2023-05-05T07:47:12.851Z,49.80
2023-05-05T07:49:42.283Z,49.80
2023-05-05T07:52:09.208Z,49.40
2023-05-05T07:54:43.291Z,48.80
2023-05-05T07:57:11.489Z,49.10
2023-05-05T07:59:42.927Z,48.70
2023-05-05T08:02:15.767Z,47.60
2023-05-05T08:04:45.022Z,46.80
2023-05-05T08:07:12.481Z,45.70
2023-05-05T08:09:41.924Z,45.50
2023-05-05T08:12:12.821Z,45.90
2023-05-05T08:14:41.121Z,46.20
2023-05-05T08:17:11.107Z,46.40
2023-05-05T08:19:38.357Z,47.30
2023-05-05T08:22:06.010Z,47.80
2023-05-05T08:24:34.658Z,48.30
2023-05-05T08:27:03.855Z,49.20
2023-05-05T08:29:31.324Z,49.60
2023-05-05T08:31:59.587Z,49.20
2023-05-05T08:34:27.249Z,49.50
2023-05-05T08:37:07.509Z,50.30
2023-05-05T08:39:34.842Z,50.80
2023-05-05T08:42:06.512Z,50.30
2023-05-05T08:44:35.282Z,50.50
2023-05-05T08:47:04.004Z,51.00
2023-05-05T08:49:37.241Z,51.40
2023-05-05T08:52:10.030Z,51.40
2023-05-05T08:54:38.624Z,51.30
2023-05-05T08:57:08.799Z,51.70
2023-05-05T08:59:36.602Z,52.00
2023-05-05T09:02:06.294Z,51.80
2023-05-05T09:04:33.166Z,52.10
2023-05-05T09:07:02.044Z,52.40
2023-05-05T09:09:30.278Z,52.50
2023-05-05T09:11:57.953Z,52.70
2023-05-05T09:14:25.998Z,52.70
2023-05-05T09:16:54.159Z,51.80
2023-05-05T09:19:22.401Z,51.10
2023-05-05T09:21:52.440Z,50.40
2023-05-05T09:24:20.193Z,50.70
2023-05-05T09:26:50.182Z,50.90
2023-05-05T09:29:24.051Z,50.80
2023-05-05T09:32:13.696Z,50.40
2023-05-05T09:34:40.985Z,50.00
2023-05-05T09:37:19.585Z,49.70
2023-05-05T09:39:54.173Z,50.20
2023-05-05T09:42:21.353Z,50.80
2023-05-05T09:45:01.759Z,51.20
2023-05-05T09:47:37.304Z,50.20
2023-05-05T09:50:11.703Z,50.10
2023-05-05T09:52:40.350Z,50.60
2023-05-05T09:55:18.128Z,51.10
2023-05-05T09:57:47.596Z,50.80
2023-05-05T10:00:17.115Z,49.60
2023-05-05T10:02:44.896Z,49.30
2023-05-05T10:08:14.925Z,50.10
2023-05-05T10:11:09.002Z,50.20
2023-05-05T10:13:36.405Z,50.60
2023-05-05T10:16:10.557Z,50.70
2023-05-05T10:18:42.603Z,50.20
2023-05-05T10:21:10.103Z,50.70
2023-05-05T10:23:42.263Z,51.50
2023-05-05T10:26:10.319Z,50.80
2023-05-05T10:28:54.190Z,51.00
2023-05-05T10:31:26.735Z,51.40
2023-05-05T10:34:26.365Z,51.60
2023-05-05T10:36:55.401Z,51.40
2023-05-05T10:39:23.714Z,51.80
2023-05-05T10:41:51.664Z,52.90
2023-05-05T10:44:21.506Z,53.00
2023-05-05T10:46:51.838Z,52.70
2023-05-05T10:49:24.405Z,52.70
2023-05-05T10:52:34.202Z,52.30
2023-05-05T10:55:22.928Z,52.10
2023-05-05T10:57:53.080Z,51.80
2023-05-05T11:00:38.749Z,51.20
2023-05-05T11:03:17.841Z,51.30
2023-05-05T11:06:11.990Z,51.40
2023-05-05T11:08:42.838Z,51.60
2023-05-05T11:11:11.312Z,51.40
2023-05-05T11:13:41.390Z,51.00
2023-05-05T11:16:43.650Z,50.30
2023-05-05T11:19:43.711Z,50.60
2023-05-05T11:22:11.426Z,50.10
2023-05-05T11:24:42.630Z,49.70
2023-05-05T11:27:10.281Z,49.20
2023-05-05T11:30:10.046Z,50.00
2023-05-05T11:32:37.100Z,50.70
2023-05-05T11:35:04.475Z,50.80
2023-05-05T11:37:35.406Z,50.70
2023-05-05T11:40:26.195Z,50.80
2023-05-05T11:43:06.320Z,50.50
2023-05-05T11:45:33.742Z,50.40
2023-05-05T11:48:28.329Z,50.80
2023-05-05T11:50:55.276Z,50.70
2023-05-05T11:53:25.266Z,51.10
2023-05-05T11:56:08.286Z,51.90
2023-05-05T11:58:36.180Z,52.40
2023-05-05T12:01:08.684Z,52.60
2023-05-05T12:03:41.999Z,52.80
2023-05-05T12:06:10.480Z,52.70
2023-05-05T12:09:04.143Z,52.50
2023-05-05T12:11:34.563Z,51.30
2023-05-05T12:14:11.997Z,51.70
2023-05-05T12:16:39.319Z,52.10
2023-05-05T12:19:06.856Z,52.50
2023-05-05T12:21:35.385Z,52.50
2023-05-05T12:24:02.240Z,52.70
2023-05-05T12:26:31.068Z,52.70
2023-05-05T12:28:59.509Z,52.60
2023-05-05T12:31:42.521Z,52.80
2023-05-05T12:34:09.599Z,52.80
2023-05-05T12:36:36.780Z,52.80
2023-05-05T12:39:07.754Z,52.50
2023-05-05T12:41:34.587Z,52.60
2023-05-05T12:44:03.012Z,52.60
2023-05-05T12:46:44.222Z,52.60
2023-05-05T12:49:11.856Z,52.20
2023-05-05T12:51:40.258Z,52.20
2023-05-05T12:54:14.212Z,52.20
2023-05-05T12:56:44.688Z,52.10
2023-05-05T12:59:13.165Z,52.20
2023-05-05T13:01:50.597Z,52.10
2023-05-05T13:04:18.120Z,51.70
2023-05-05T13:06:51.727Z,51.60
2023-05-05T13:09:34.344Z,51.40
2023-05-05T13:12:03.306Z,50.30
2023-05-05T13:14:34.805Z,50.70
2023-05-05T13:17:02.092Z,50.90
2023-05-05T13:19:29.714Z,51.20
2023-05-05T13:21:57.523Z,51.10
2023-05-05T13:24:37.936Z,50.50
2023-05-05T13:27:09.638Z,50.60
2023-05-05T13:29:36.564Z,50.40
2023-05-05T13:32:05.153Z,50.30
2023-05-05T13:34:31.912Z,50.60
2023-05-05T13:36:59.277Z,51.00
2023-05-05T13:39:28.485Z,50.70
2023-05-05T13:41:56.138Z,50.80
2023-05-05T13:44:23.005Z,50.60
2023-05-05T13:46:50.333Z,50.40
2023-05-05T13:49:18.091Z,50.30
2023-05-05T13:51:46.851Z,50.50
2023-05-05T13:54:15.059Z,50.50
2023-05-05T13:56:42.922Z,50.50
2023-05-05T13:59:10.175Z,50.70
2023-05-05T14:01:37.930Z,50.90
2023-05-05T14:04:06.093Z,50.60
2023-05-05T14:06:35.046Z,50.60
2023-05-05T14:09:02.199Z,50.40
2023-05-05T14:11:29.098Z,50.30
2023-05-05T14:13:55.972Z,50.20
2023-05-05T14:16:22.839Z,50.50
2023-05-05T14:18:49.705Z,50.60
2023-05-05T14:21:18.587Z,50.60
2023-05-05T14:23:45.870Z,50.50
2023-05-05T14:26:13.003Z,50.50
2023-05-05T14:28:39.827Z,50.70
2023-05-05T14:31:06.664Z,51.00
2023-05-05T14:33:33.518Z,51.10
2023-05-05T14:36:00.758Z,51.40
2023-05-05T14:38:28.886Z,51.40
2023-05-05T14:40:55.907Z,51.80
2023-05-05T14:43:23.566Z,51.90
2023-05-05T14:45:50.421Z,52.10
2023-05-05T14:48:21.867Z,52.10
2023-05-05T14:50:50.797Z,52.00
2023-05-05T14:53:19.142Z,51.90
2023-05-05T14:55:46.028Z,51.80
2023-05-05T14:58:15.981Z,52.10
2023-05-05T15:00:42.798Z,52.20
2023-05-05T15:03:09.750Z,52.30
2023-05-05T15:05:36.591Z,52.30
2023-05-05T15:08:03.428Z,52.20
2023-05-05T15:10:30.289Z,52.30
2023-05-05T15:12:57.684Z,52.50
2023-05-05T15:15:24.474Z,52.80
2023-05-05T15:17:53.207Z,52.90
2023-05-05T15:20:20.616Z,52.80
2023-05-05T15:22:49.461Z,52.80
2023-05-05T15:25:16.514Z,52.80
2023-05-05T15:27:44.634Z,53.30
2023-05-05T15:30:14.023Z,53.60
2023-05-05T15:32:41.637Z,53.80
2023-05-05T15:35:09.705Z,53.80
2023-05-05T15:37:38.671Z,54.10
2023-05-05T15:40:08.340Z,54.20
2023-05-05T15:42:35.228Z,53.90
2023-05-05T15:45:02.917Z,53.90
2023-05-05T15:47:31.391Z,53.90
2023-05-05T15:49:59.650Z,54.10
2023-05-05T15:52:28.975Z,54.30
2023-05-05T15:54:56.066Z,54.60
2023-05-05T15:57:22.837Z,54.20
2023-05-05T15:59:52.925Z,54.00
2023-05-05T16:02:21.798Z,53.90
2023-05-05T16:04:51.138Z,53.90
2023-05-05T16:07:17.974Z,53.90
2023-05-05T16:09:44.776Z,53.50
2023-05-05T16:12:11.678Z,53.10
2023-05-05T16:14:38.565Z,52.20
2023-05-05T16:17:06.331Z,51.30
2023-05-05T16:19:35.087Z,51.20
2023-05-05T16:22:03.244Z,51.30
2023-05-05T16:24:30.212Z,51.30
2023-05-05T16:26:58.917Z,51.30
2023-05-05T16:29:28.289Z,50.80
2023-05-05T16:31:55.095Z,50.70
2023-05-05T16:34:24.944Z,51.00
2023-05-05T16:36:53.458Z,50.80
2023-05-05T16:39:21.591Z,50.70
2023-05-05T16:41:51.043Z,50.70
2023-05-05T16:44:18.295Z,49.90
2023-05-05T16:46:46.561Z,50.00
2023-05-05T16:49:14.494Z,50.00
2023-05-05T16:51:42.006Z,50.00
2023-05-05T16:54:10.568Z,50.10
2023-05-05T16:56:38.173Z,50.10
2023-05-05T16:59:10.394Z,50.10
2023-05-05T17:01:37.566Z,49.80
2023-05-05T17:04:04.430Z,49.80
2023-05-05T17:06:34.626Z,49.80
2023-05-05T17:09:01.483Z,49.90
2023-05-05T17:11:28.950Z,50.00
2023-05-05T17:13:58.868Z,50.40
2023-05-05T17:16:26.929Z,50.60
2023-05-05T17:18:55.600Z,50.80
2023-05-05T17:21:24.001Z,51.00
2023-05-05T17:23:50.941Z,51.10
2023-05-05T17:26:17.753Z,51.50
2023-05-05T17:28:44.547Z,51.60
2023-05-05T17:31:11.916Z,51.80
2023-05-05T17:33:38.723Z,52.00
2023-05-05T17:36:06.910Z,52.10
2023-05-05T17:38:34.081Z,52.30
2023-05-05T17:41:00.983Z,52.30
2023-05-05T17:43:27.770Z,52.50
2023-05-05T17:45:54.721Z,52.50
2023-05-05T17:48:21.531Z,52.50
2023-05-05T17:50:48.328Z,52.60
2023-05-05T17:53:18.926Z,52.70
2023-05-05T17:55:46.166Z,52.70
2023-05-05T17:58:12.983Z,52.90
2023-05-05T18:00:40.384Z,52.80
2023-05-05T18:03:07.341Z,52.60
2023-05-05T18:05:35.290Z,52.60
2023-05-05T18:08:02.455Z,52.70
2023-05-05T18:10:29.214Z,52.80
2023-05-05T18:12:56.928Z,52.90
2023-05-05T18:15:23.814Z,53.00
2023-05-05T18:17:55.584Z,53.60
2023-05-05T18:20:25.834Z,54.00
2023-05-05T18:22:52.560Z,54.90
2023-05-05T18:25:19.490Z,55.50
2023-05-05T18:27:47.075Z,56.20
2023-05-05T18:30:16.373Z,56.90
2023-05-05T18:32:43.249Z,57.80
2023-05-05T18:35:10.531Z,57.40
2023-05-05T18:37:37.640Z,57.90
2023-05-05T18:40:04.844Z,58.20
2023-05-05T18:42:34.706Z,58.20
2023-05-05T18:45:01.642Z,58.30
2023-05-05T18:47:29.736Z,58.30
2023-05-05T18:49:56.709Z,58.50
2023-05-05T18:52:23.810Z,58.50
2023-05-05T18:54:50.519Z,58.60
2023-05-05T18:57:18.336Z,58.50
2023-05-05T18:59:46.122Z,58.70
2023-05-05T19:02:13.286Z,58.80
2023-05-05T19:04:43.304Z,59.20
2023-05-05T19:07:10.251Z,59.70
2023-05-05T19:09:39.791Z,60.10
2023-05-05T19:12:07.895Z,60.20
2023-05-05T19:14:34.614Z,61.40
2023-05-05T19:17:02.738Z,61.40
2023-05-05T19:19:31.509Z,61.20
2023-05-05T19:21:58.354Z,61.20
2023-05-05T19:24:26.243Z,61.30
2023-05-05T19:26:54.388Z,61.30
2023-05-05T19:29:23.535Z,61.50
2023-05-05T19:31:52.017Z,61.90
2023-05-05T19:34:19.295Z,62.10
2023-05-05T19:36:46.732Z,62.40
2023-05-05T19:39:15.302Z,62.70
2023-05-05T19:41:43.182Z,63.40
2023-05-05T19:44:12.019Z,63.80
2023-05-05T19:46:39.111Z,63.80
2023-05-05T19:49:08.058Z,63.90
2023-05-05T19:51:34.787Z,64.50
2023-05-05T19:54:01.893Z,65.20
2023-05-05T19:56:28.849Z,65.10
2023-05-05T19:59:00.645Z,65.20
2023-05-05T20:01:31.069Z,65.60
2023-05-05T20:03:59.813Z,65.80
2023-05-05T20:06:29.300Z,66.10
2023-05-05T20:08:56.961Z,66.20
2023-05-05T20:11:27.051Z,66.20
2023-05-05T20:13:59.133Z,66.20
2023-05-05T20:16:30.443Z,66.50
2023-05-05T20:18:57.730Z,66.80
2023-05-05T20:21:25.698Z,67.10
2023-05-05T20:23:59.156Z,67.10
2023-05-05T20:26:29.995Z,67.60
2023-05-05T20:29:04.131Z,67.30
2023-05-05T20:31:36.057Z,67.50
2023-05-05T20:34:03.417Z,67.60
2023-05-05T20:36:32.039Z,67.60
2023-05-05T20:39:00.115Z,67.70
2023-05-05T20:41:26.916Z,68.00
2023-05-05T20:43:57.554Z,68.30
2023-05-05T20:46:24.431Z,68.70
2023-05-05T20:48:52.398Z,69.20
2023-05-05T20:51:21.624Z,69.80
2023-05-05T20:53:53.681Z,70.20
2023-05-05T20:56:23.664Z,70.60
2023-05-05T20:58:51.050Z,70.80
2023-05-05T21:01:18.442Z,71.10
2023-05-05T21:03:47.523Z,71.20
2023-05-05T21:06:17.173Z,71.40
2023-05-05T21:08:43.923Z,71.70
2023-05-05T21:11:10.822Z,72.10
2023-05-05T21:13:38.273Z,72.50
2023-05-05T21:16:06.376Z,72.70
2023-05-05T21:18:35.194Z,73.20
2023-05-05T21:21:02.142Z,73.30
2023-05-05T21:23:28.879Z,73.70
2023-05-05T21:25:57.591Z,74.00
2023-05-05T21:28:24.712Z,74.30
2023-05-05T21:31:10.328Z,75.00
2023-05-05T21:33:41.379Z,75.10
2023-05-05T21:36:08.271Z,75.00
2023-05-05T21:38:36.388Z,74.90
2023-05-05T21:41:04.876Z,75.10
2023-05-05T21:43:31.744Z,75.30
2023-05-05T21:46:02.425Z,75.80
2023-05-05T21:48:31.336Z,76.20
2023-05-05T21:50:58.444Z,76.70
2023-05-05T21:53:25.351Z,77.10
2023-05-05T21:55:52.594Z,77.50
2023-05-05T21:58:19.341Z,77.90
2023-05-05T22:00:51.759Z,78.30
2023-05-05T22:03:18.832Z,78.70
2023-05-05T22:05:46.711Z,79.10
2023-05-05T22:08:13.494Z,79.70
2023-05-05T22:10:40.285Z,80.10
2023-05-05T22:13:10.356Z,80.60
2023-05-05T22:15:46.622Z,81.00
2023-05-05T22:18:14.855Z,81.60
2023-05-05T22:20:42.683Z,82.00
2023-05-05T22:23:09.531Z,82.60
2023-05-05T22:25:36.759Z,83.10
2023-05-05T22:28:03.720Z,83.70
2023-05-05T22:30:30.670Z,84.20
2023-05-05T22:32:57.571Z,84.80
2023-05-05T22:35:24.637Z,85.50
2023-05-05T22:37:51.684Z,86.40
2023-05-05T22:40:18.872Z,87.20
2023-05-05T22:42:46.770Z,87.90
2023-05-05T22:45:13.643Z,89.60
2023-05-05T22:47:40.774Z,90.00
2023-05-05T22:50:08.775Z,90.30
2023-05-05T22:52:35.554Z,90.80
2023-05-05T22:55:02.546Z,91.20
2023-05-05T22:57:29.311Z,91.70
2023-05-05T22:59:56.245Z,92.30
2023-05-05T23:02:26.516Z,93.00
2023-05-05T23:04:54.144Z,93.50
2023-05-05T23:07:20.882Z,94.10
2023-05-05T23:09:47.745Z,94.70
2023-05-05T23:12:14.508Z,95.20
2023-05-05T23:14:43.416Z,95.80
2023-05-05T23:17:10.309Z,96.30
2023-05-05T23:19:38.755Z,96.80
2023-05-05T23:22:06.155Z,97.30
2023-05-05T23:24:33.435Z,97.70
2023-05-05T23:27:02.091Z,98.20
2023-05-05T23:29:29.304Z,98.70
2023-05-05T23:31:56.335Z,99.20
2023-05-05T23:34:23.181Z,99.60
2023-05-05T23:36:50.162Z,99.90
2023-05-05T23:39:17.244Z,99.90
2023-05-05T23:41:44.091Z,99.90
2023-05-05T23:44:10.874Z,99.90
2023-05-05T23:46:37.673Z,99.90
2023-05-05T23:49:05.754Z,99.90
2023-05-05T23:51:32.626Z,99.90
2023-05-05T23:53:59.594Z,99.90
2023-05-05T23:56:27.304Z,99.90
2023-05-05T23:58:54.631Z,99.90
